Time;durP1;ratioP1;P1;durP2;ratioP2;P2;SDS_P1;SDS_P2;PMS_P1;PMS_P2;Temp;Humidity;BMP_temperature;BMP_pressure;BME280_temperature;BME280_humidity;BME280_pressure;Samples;Min_cycle;Max_cycle;Signal;HPM_P1;HPM_P2
2023/02/25 00:01:12;;;;;;;4.93;1.98;;;;;;;5.55;47.54;100248.03;5087182;28;20336;-77
2023/02/25 00:03:41;;;;;;;6.55;2.40;;;;;;;5.53;47.35;100252.72;5097942;28;20454;-77
2023/02/25 00:06:12;;;;;;;7.65;2.03;;;;;;;5.54;47.69;100249.00;5106554;28;20521;-77
2023/02/25 00:08:42;;;;;;;6.57;2.00;;;;;;;5.53;47.53;100254.56;5086016;28;20039;-77
2023/02/25 00:11:12;;;;;;;7.70;2.30;;;;;;;5.53;47.66;100257.28;5092317;28;20135;-76
2023/02/25 00:13:41;;;;;;;7.25;1.90;;;;;;;5.52;47.55;100258.28;5103765;28;20356;-76
2023/02/25 00:16:11;;;;;;;7.43;2.10;;;;;;;5.52;47.60;100264.56;5093930;28;20064;-77
2023/02/25 00:18:43;;;;;;;6.18;2.22;;;;;;;5.50;47.67;100261.09;5086328;28;20047;-76
2023/02/25 00:21:14;;;;;;;5.28;2.20;;;;;;;5.50;47.62;100257.50;5088930;28;20036;-76
2023/02/25 00:23:43;;;;;;;6.00;2.08;;;;;;;5.49;47.54;100248.50;5102627;28;20482;-77
2023/02/25 00:26:11;;;;;;;5.80;2.00;;;;;;;5.48;47.59;100249.47;5091171;28;20101;-77
2023/02/25 00:28:40;;;;;;;6.85;2.00;;;;;;;5.48;47.38;100254.03;5086047;28;20044;-76
2023/02/25 00:31:12;;;;;;;7.45;2.22;;;;;;;5.48;47.53;100248.59;5088679;28;20040;-77
2023/02/25 00:33:40;;;;;;;5.32;1.98;;;;;;;5.44;47.81;100244.41;5089901;28;20083;-76
2023/02/25 00:36:11;;;;;;;5.47;2.25;;;;;;;5.46;47.50;100248.72;5090698;28;20090;-77
2023/02/25 00:38:40;;;;;;;6.20;1.80;;;;;;;5.45;47.68;100248.88;5084999;28;20294;-76
2023/02/25 00:41:10;;;;;;;5.88;2.10;;;;;;;5.45;47.66;100240.72;5087482;28;20305;-76
2023/02/25 00:43:41;;;;;;;4.45;1.80;;;;;;;5.44;47.61;100244.41;5090045;28;20109;-77
2023/02/25 00:46:12;;;;;;;6.10;2.20;;;;;;;5.44;47.59;100244.41;5092646;28;20036;-76
2023/02/25 00:48:40;;;;;;;7.30;1.80;;;;;;;5.41;47.50;100245.50;5086876;28;20040;-77
2023/02/25 00:51:11;;;;;;;6.60;2.03;;;;;;;5.42;47.67;100251.78;5091692;28;20499;-77
2023/02/25 00:53:40;;;;;;;6.55;2.00;;;;;;;5.41;47.69;100241.91;5099463;28;20058;-76
2023/02/25 00:56:13;;;;;;;7.28;1.75;;;;;;;5.41;47.72;100250.94;5086989;28;20040;-76
2023/02/25 00:58:42;;;;;;;7.30;1.98;;;;;;;5.39;47.59;100242.03;5088096;28;20044;-76
2023/02/25 01:01:18;;;;;;;5.05;1.73;;;;;;;5.42;46.90;100249.09;5090719;28;20124;-76
2023/02/25 01:03:48;;;;;;;6.85;1.80;;;;;;;5.38;47.54;100251.16;5089214;28;20040;-76
2023/02/25 01:06:16;;;;;;;5.45;2.10;;;;;;;5.38;47.57;100247.59;5091472;28;20051;-77
2023/02/25 01:08:44;;;;;;;5.10;1.70;;;;;;;5.38;47.50;100242.19;5087595;28;20047;-76
2023/02/25 01:11:14;;;;;;;6.95;1.88;;;;;;;5.38;47.64;100245.72;5104548;28;20480;-76
2023/02/25 01:13:43;;;;;;;5.13;1.70;;;;;;;5.38;47.41;100247.59;5079925;28;20036;-77
2023/02/25 01:16:13;;;;;;;4.78;1.75;;;;;;;5.37;47.35;100249.44;5098722;28;20400;-77
2023/02/25 01:18:43;;;;;;;4.80;1.63;;;;;;;5.38;47.35;100250.31;5085834;28;20524;-76
2023/02/25 01:21:16;;;;;;;7.80;1.70;;;;;;;5.37;47.33;100246.72;5093203;28;20047;-76
2023/02/25 01:23:45;;;;;;;6.18;1.58;;;;;;;5.37;47.11;100257.59;5086730;28;20043;-77
2023/02/25 01:26:13;;;;;;;5.90;1.90;;;;;;;5.35;47.16;100250.53;5091676;28;20043;-77
2023/02/25 01:28:41;;;;;;;5.63;1.90;;;;;;;5.33;47.30;100249.78;5101691;28;20518;-77
2023/02/25 01:31:17;;;;;;;9.38;1.90;;;;;;;5.34;46.95;100252.38;5093611;28;20501;-76
2023/02/25 01:33:47;;;;;;;5.63;1.90;;;;;;;5.32;46.88;100256.19;5076171;28;20075;-77
2023/02/25 01:36:15;;;;;;;5.47;1.63;;;;;;;5.28;47.23;100255.56;5104345;28;20043;-76
2023/02/25 01:38:42;;;;;;;5.90;1.98;;;;;;;5.27;47.14;100260.13;5107099;28;20035;-76
2023/02/25 01:41:10;;;;;;;6.53;1.92;;;;;;;5.26;46.99;100262.94;5093071;28;20048;-76
2023/02/25 01:43:39;;;;;;;7.38;1.67;;;;;;;5.24;47.40;100256.75;5083478;28;20058;-76
2023/02/25 01:46:07;;;;;;;4.93;1.90;;;;;;;5.22;47.29;100248.72;5112293;28;20048;-77
2023/02/25 01:48:39;;;;;;;7.07;1.80;;;;;;;5.24;46.99;100262.19;5110305;28;20499;-76
2023/02/25 01:51:11;;;;;;;7.55;1.83;;;;;;;5.23;47.14;100255.03;5092456;28;20139;-77
2023/02/25 01:53:44;;;;;;;4.85;1.90;;;;;;;5.23;47.29;100260.44;5082849;28;20044;-76
2023/02/25 01:56:14;;;;;;;5.88;1.95;;;;;;;5.22;47.26;100264.13;5088800;28;20079;-76
2023/02/25 01:58:43;;;;;;;8.55;2.22;;;;;;;5.22;47.09;100266.84;5091765;28;20121;-76
2023/02/25 02:01:14;;;;;;;9.35;2.20;;;;;;;5.22;47.33;100258.72;5087402;28;20039;-77
2023/02/25 02:03:43;;;;;;;4.47;1.73;;;;;;;5.22;47.47;100264.13;5065786;28;20086;-76
2023/02/25 02:06:15;;;;;;;7.65;2.30;;;;;;;5.23;47.15;100265.88;5105594;28;20552;-76
2023/02/25 02:08:45;;;;;;;5.20;1.80;;;;;;;5.21;47.34;100265.16;5101816;28;20259;-76
2023/02/25 02:11:13;;;;;;;5.35;1.60;;;;;;;5.22;47.51;100259.59;5089371;28;20126;-77
2023/02/25 02:13:47;;;;;;;5.70;1.45;;;;;;;5.24;47.21;100257.63;5098667;28;20093;-76
2023/02/25 02:16:31;;;;;;;4.50;1.80;;;;;;;5.26;47.28;100257.53;5083706;28;20062;-76
2023/02/25 02:19:14;;;;;;;4.75;1.65;;;;;;;5.25;47.22;100256.66;5108138;28;20579;-76
2023/02/25 02:22:01;;;;;;;5.75;1.55;;;;;;;5.22;47.04;100251.44;5105172;22;20122;-79
2023/02/25 02:24:55;;;;;;;6.00;1.88;;;;;;;5.23;46.95;100252.31;5078813;28;20036;-78
2023/02/25 02:27:26;;;;;;;6.03;1.50;;;;;;;5.21;47.04;100252.41;5042774;28;20040;-78
2023/02/25 02:30:17;;;;;;;5.40;1.77;;;;;;;5.22;46.94;100250.56;5074482;28;20046;-78
2023/02/25 02:32:53;;;;;;;4.75;1.80;;;;;;;5.22;47.15;100264.13;5070532;28;20051;-78
2023/02/25 02:35:27;;;;;;;6.25;1.80;;;;;;;5.21;47.13;100265.16;5058177;28;20041;-79
2023/02/25 02:38:03;;;;;;;4.22;1.65;;;;;;;5.21;47.27;100265.16;5074913;28;20045;-79
2023/02/25 02:40:43;;;;;;;5.85;1.52;;;;;;;5.20;47.19;100258.84;5046974;28;20193;-79
2023/02/25 02:43:21;;;;;;;7.10;1.50;;;;;;;5.20;47.16;100258.84;5043976;28;20076;-78
2023/02/25 02:45:55;;;;;;;6.85;1.60;;;;;;;5.18;47.27;100255.38;5047763;28;20069;-78
2023/02/25 02:48:31;;;;;;;6.75;1.33;;;;;;;5.20;47.21;100255.28;5070151;28;20052;-78
2023/02/25 02:51:02;;;;;;;7.03;1.65;;;;;;;5.19;47.58;100257.13;5066592;28;20056;-79
2023/02/25 02:53:35;;;;;;;5.95;1.73;;;;;;;5.20;47.29;100249.84;5067172;28;20094;-78
2023/02/25 02:56:08;;;;;;;5.82;1.85;;;;;;;5.19;47.41;100254.41;5072139;28;20060;-78
2023/02/25 02:58:41;;;;;;;4.45;1.30;;;;;;;5.18;47.22;100249.09;5063654;28;20048;-78
2023/02/25 03:01:16;;;;;;;6.30;1.67;;;;;;;5.18;47.19;100252.66;5083569;28;20445;-79
2023/02/25 03:03:50;;;;;;;7.15;1.77;;;;;;;5.18;47.25;100249.97;5072232;28;20395;-79
2023/02/25 03:06:27;;;;;;;6.00;1.77;;;;;;;5.18;47.26;100260.81;5067089;28;20044;-78
2023/02/25 03:08:58;;;;;;;6.35;1.52;;;;;;;5.16;47.20;100249.16;5056518;28;20565;-79
2023/02/25 03:11:26;;;;;;;5.93;1.60;;;;;;;5.16;47.25;100256.44;5074439;28;20090;-79
2023/02/25 03:13:55;;;;;;;7.55;1.73;;;;;;;5.17;47.11;100263.59;5050416;28;20102;-78
2023/02/25 03:16:29;;;;;;;4.70;1.48;;;;;;;5.17;47.00;100255.47;5053867;28;20473;-78
2023/02/25 03:19:03;;;;;;;7.40;1.50;;;;;;;5.15;47.23;100250.13;5051691;28;20046;-79
2023/02/25 03:21:37;;;;;;;6.95;1.50;;;;;;;5.15;47.15;100263.69;5059753;28;20061;-78
2023/02/25 03:24:13;;;;;;;7.53;1.45;;;;;;;5.13;47.02;100262.94;5079191;28;20048;-78
2023/02/25 03:26:41;;;;;;;5.50;1.40;;;;;;;5.10;47.40;100265.91;5049644;28;20094;-79
2023/02/25 03:29:16;;;;;;;6.45;1.63;;;;;;;5.13;47.00;100264.81;5073277;28;20036;-79
2023/02/25 03:31:52;;;;;;;3.72;1.33;;;;;;;5.13;47.09;100262.94;5055554;28;20040;-79
2023/02/25 03:34:28;;;;;;;5.85;1.67;;;;;;;5.13;47.23;100270.25;5057126;28;20466;-79
2023/02/25 03:37:01;;;;;;;5.40;1.70;;;;;;;5.12;46.95;100271.22;5087896;28;20308;-78
2023/02/25 03:39:36;;;;;;;5.38;1.55;;;;;;;5.11;47.14;100266.78;5054535;28;20041;-79
2023/02/25 03:42:10;;;;;;;9.43;1.73;;;;;;;5.11;47.21;100277.63;5080241;28;20048;-79
2023/02/25 03:44:44;;;;;;;7.38;1.52;;;;;;;5.11;47.18;100270.34;5055199;28;20128;-80
2023/02/25 03:47:14;;;;;;;4.95;1.58;;;;;;;5.10;47.09;100279.47;5051061;28;20049;-80
2023/02/25 03:49:50;;;;;;;5.38;1.40;;;;;;;5.11;46.82;100278.50;5048915;28;20094;-78
2023/02/25 03:52:23;;;;;;;6.85;1.70;;;;;;;5.10;47.14;100271.34;5066000;28;20123;-78
2023/02/25 03:54:57;;;;;;;7.90;1.92;;;;;;;5.10;47.33;100273.16;5057758;28;20471;-79
2023/02/25 03:57:34;;;;;;;3.55;1.40;;;;;;;5.11;47.31;100285.75;5052801;28;20040;-78
2023/02/25 04:00:14;;;;;;;5.25;1.52;;;;;;;5.11;47.31;100285.75;5053249;28;20046;-79
2023/02/25 04:02:43;;;;;;;6.80;1.70;;;;;;;5.11;47.18;100277.63;5058521;28;20041;-79
2023/02/25 04:05:14;;;;;;;5.93;1.52;;;;;;;5.13;47.10;100283.81;5057007;28;20506;-79
2023/02/25 04:07:42;;;;;;;5.63;1.70;;;;;;;5.10;47.29;100284.91;5053852;28;20051;-78
2023/02/25 04:10:13;;;;;;;7.47;1.60;;;;;;;5.12;47.42;100285.66;5055796;28;20048;-79
2023/02/25 04:12:41;;;;;;;4.70;1.55;;;;;;;5.11;47.12;100289.34;5051470;28;20052;-79
2023/02/25 04:15:10;;;;;;;4.55;1.30;;;;;;;5.11;47.15;100302.91;5060698;28;20064;-79
2023/02/25 04:17:38;;;;;;;4.15;1.42;;;;;;;5.11;47.23;100292.06;5055196;28;20048;-79
2023/02/25 04:20:06;;;;;;;7.05;1.58;;;;;;;5.12;47.14;100293.78;5060098;28;20044;-78
2023/02/25 04:22:36;;;;;;;3.53;1.13;;;;;;;5.13;47.16;100300.09;5088666;28;20047;-79
2023/02/25 04:25:04;;;;;;;4.05;1.30;;;;;;;5.12;47.26;100309.19;5049010;28;20507;-80
2023/02/25 04:27:32;;;;;;;5.45;1.40;;;;;;;5.12;47.30;100309.19;5054185;28;20037;-79
2023/02/25 04:30:00;;;;;;;6.60;1.95;;;;;;;5.11;47.27;100308.31;5067802;28;20101;-78
2023/02/25 04:32:28;;;;;;;5.13;1.42;;;;;;;5.12;47.18;100311.91;5092232;28;20109;-79
2023/02/25 04:35:01;;;;;;;5.57;1.38;;;;;;;5.12;47.04;100314.63;5072859;28;20117;-78
2023/02/25 04:37:30;;;;;;;4.28;1.40;;;;;;;5.11;47.34;100307.47;5079963;28;20045;-78
2023/02/25 04:39:59;;;;;;;5.82;1.80;;;;;;;5.13;47.23;100306.34;5072719;28;20415;-78
2023/02/25 04:42:27;;;;;;;5.43;1.50;;;;;;;5.12;47.35;100301.94;5080339;28;20067;-78
2023/02/25 04:44:55;;;;;;;4.68;1.27;;;;;;;5.12;47.37;100301.94;5054630;28;20041;-78
2023/02/25 04:47:22;;;;;;;5.53;1.73;;;;;;;5.12;47.35;100301.94;5087973;28;20047;-79
2023/02/25 04:49:50;;;;;;;7.05;1.50;;;;;;;5.13;47.32;100300.09;5051252;28;20057;-78
2023/02/25 04:52:18;;;;;;;6.28;1.50;;;;;;;5.13;47.29;100295.50;5074196;28;20036;-79
2023/02/25 04:54:46;;;;;;;7.63;1.73;;;;;;;5.12;47.09;100296.50;5063231;28;20511;-79
2023/02/25 04:57:15;;;;;;;4.38;1.20;;;;;;;5.13;47.27;100300.09;5059637;28;20078;-79
2023/02/25 04:59:43;;;;;;;5.93;1.40;;;;;;;5.13;47.27;100300.09;5069899;28;20058;-79
2023/02/25 05:02:11;;;;;;;5.07;1.38;;;;;;;5.13;47.30;100302.78;5092885;28;20070;-79
2023/02/25 05:04:40;;;;;;;5.85;1.50;;;;;;;5.12;47.08;100304.63;5081373;28;20511;-79
2023/02/25 05:07:08;;;;;;;6.45;1.80;;;;;;;5.11;47.22;100302.91;5076688;28;20040;-80
2023/02/25 05:09:36;;;;;;;5.90;1.30;;;;;;;5.10;47.04;100300.28;5031156;28;20052;-80
2023/02/25 05:12:04;;;;;;;7.85;1.75;;;;;;;5.09;47.11;100301.28;5079427;28;20066;-79
2023/02/25 05:14:33;;;;;;;4.90;1.42;;;;;;;5.11;47.11;100304.75;5063330;28;20060;-79
2023/02/25 05:17:01;;;;;;;6.47;1.67;;;;;;;5.09;47.04;100304.84;5087064;28;20281;-79
2023/02/25 05:19:29;;;;;;;5.60;1.40;;;;;;;5.09;47.08;100298.56;5056550;28;20063;-79
2023/02/25 05:21:57;;;;;;;6.63;1.42;;;;;;;5.08;47.34;100307.66;5091665;28;20047;-79
2023/02/25 05:24:24;;;;;;;4.90;1.30;;;;;;;5.09;47.09;100290.44;5073562;28;20042;-80
2023/02/25 05:26:53;;;;;;;5.32;1.23;;;;;;;5.09;47.15;100299.44;5050053;28;20048;-80
2023/02/25 05:29:20;;;;;;;4.43;1.40;;;;;;;5.10;47.20;100300.28;5051943;28;20089;-79
2023/02/25 05:31:50;;;;;;;6.90;1.70;;;;;;;5.10;47.13;100300.28;5069202;28;20048;-78
2023/02/25 05:34:18;;;;;;;4.57;1.23;;;;;;;5.08;47.26;100296.81;5076749;28;20128;-80
2023/02/25 05:36:46;;;;;;;5.05;1.30;;;;;;;5.08;47.28;100307.66;5051874;28;20064;-80
2023/02/25 05:39:14;;;;;;;5.65;1.40;;;;;;;5.07;47.07;100300.50;5081867;28;20315;-79
2023/02/25 05:41:42;;;;;;;7.03;1.40;;;;;;;5.09;47.28;100312.13;5076969;28;20546;-80
2023/02/25 05:44:10;;;;;;;7.97;2.15;;;;;;;5.08;47.50;100305.81;5054370;28;20546;-79
2023/02/25 05:46:38;;;;;;;3.47;1.30;;;;;;;5.08;47.25;100311.25;5049832;28;20037;-80
2023/02/25 05:49:07;;;;;;;5.72;1.58;;;;;;;5.09;47.03;100314.84;5062975;28;20480;-79
2023/02/25 05:51:35;;;;;;;6.47;1.67;;;;;;;5.07;47.43;100301.38;5084808;28;20048;-80
2023/02/25 05:54:03;;;;;;;8.10;1.40;;;;;;;5.08;47.41;100305.81;5076444;28;20041;-80
2023/02/25 05:56:31;;;;;;;5.45;1.58;;;;;;;5.08;47.46;100296.81;5070203;28;20062;-80
2023/02/25 05:58:59;;;;;;;6.35;1.27;;;;;;;5.09;47.25;100310.28;5073492;28;20070;-80
2023/02/25 06:01:28;;;;;;;8.82;1.52;;;;;;;5.08;47.21;100307.66;5069637;28;20036;-80
2023/02/25 06:03:57;;;;;;;4.97;1.42;;;;;;;5.07;47.32;100317.66;5057725;28;20044;-80
2023/02/25 06:06:29;;;;;;;5.20;1.27;;;;;;;5.08;47.24;100322.09;5050727;28;20076;-79
2023/02/25 06:08:57;;;;;;;8.57;2.03;;;;;;;5.05;47.31;100318.72;5061318;28;20040;-80
2023/02/25 06:11:27;;;;;;;7.43;1.52;;;;;;;5.07;47.38;100319.50;5060261;28;20036;-80
2023/02/25 06:13:57;;;;;;;6.07;1.60;;;;;;;5.08;47.28;100318.53;5091013;28;20052;-80
2023/02/25 06:16:30;;;;;;;4.13;1.20;;;;;;;5.08;47.19;100315.81;5072142;28;20044;-79
2023/02/25 06:18:59;;;;;;;5.75;1.70;;;;;;;5.05;47.19;100311.47;5050910;28;20047;-79
2023/02/25 06:21:29;;;;;;;5.10;1.40;;;;;;;5.07;47.21;100312.22;5085957;28;20528;-79
2023/02/25 06:23:57;;;;;;;4.45;1.50;;;;;;;5.05;47.20;100322.31;5067639;28;20525;-80
2023/02/25 06:26:25;;;;;;;6.60;1.63;;;;;;;5.04;47.15;100323.31;5076388;28;20052;-79
2023/02/25 06:28:53;;;;;;;6.55;1.40;;;;;;;5.04;47.21;100317.03;5064277;28;20045;-80
2023/02/25 06:31:23;;;;;;;5.97;1.80;;;;;;;5.04;47.15;100322.44;5070898;28;20043;-80
2023/02/25 06:33:52;;;;;;;7.75;1.30;;;;;;;5.02;47.25;100336.13;5077213;28;20045;-80
2023/02/25 06:36:20;;;;;;;5.40;1.33;;;;;;;5.02;47.24;100343.38;5064666;28;20048;-79
2023/02/25 06:38:50;;;;;;;5.53;1.50;;;;;;;5.03;47.00;100340.56;5064759;28;20063;-79
2023/02/25 06:41:21;;;;;;;4.75;1.65;;;;;;;5.03;47.27;100335.16;5050610;28;20041;-79
2023/02/25 06:43:50;;;;;;;7.15;1.70;;;;;;;5.02;47.39;100341.53;5087717;28;20048;-79
2023/02/25 06:46:20;;;;;;;4.60;1.33;;;;;;;5.02;47.08;100346.97;5070898;28;20044;-79
2023/02/25 06:48:49;;;;;;;6.75;1.95;;;;;;;5.01;47.17;100347.06;5088283;28;20052;-79
2023/02/25 06:51:17;;;;;;;6.07;1.77;;;;;;;5.00;47.24;100354.34;5083334;28;20287;-79
2023/02/25 06:53:46;;;;;;;5.13;1.50;;;;;;;5.01;47.09;100358.78;5090025;28;20063;-79
2023/02/25 06:56:18;;;;;;;5.68;1.50;;;;;;;5.03;47.17;100361.41;5062076;28;20053;-79
2023/02/25 06:58:47;;;;;;;5.55;1.52;;;;;;;4.99;47.23;100363.44;5059184;28;20415;-78
2023/02/25 07:01:16;;;;;;;7.15;1.80;;;;;;;5.01;47.26;100366.94;5066003;28;20044;-79
2023/02/25 07:03:44;;;;;;;4.05;1.67;;;;;;;5.02;47.25;100360.53;5043883;28;20036;-79
2023/02/25 07:06:14;;;;;;;4.93;1.35;;;;;;;5.01;47.31;100358.78;5078414;28;20086;-79
2023/02/25 07:08:42;;;;;;;7.75;2.03;;;;;;;5.02;47.17;100362.38;5070856;28;20384;-79
2023/02/25 07:11:12;;;;;;;4.43;1.40;;;;;;;5.03;47.12;100362.25;5057076;28;20040;-79
2023/02/25 07:13:43;;;;;;;8.07;1.65;;;;;;;5.03;47.20;100364.09;5073239;28;20518;-79
2023/02/25 07:16:12;;;;;;;6.88;1.30;;;;;;;5.03;47.17;100367.69;5058515;28;20052;-79
2023/02/25 07:18:42;;;;;;;7.07;1.58;;;;;;;5.03;47.25;100374.97;5079928;28;20063;-79
2023/02/25 07:21:11;;;;;;;5.72;1.55;;;;;;;5.02;47.39;100376.81;5048404;28;20040;-81
2023/02/25 07:23:39;;;;;;;5.60;1.58;;;;;;;5.04;47.23;100385.69;5059065;28;20052;-80
2023/02/25 07:26:10;;;;;;;6.60;1.75;;;;;;;5.05;47.17;100386.53;5058796;28;20052;-80
2023/02/25 07:28:38;;;;;;;5.45;1.75;;;;;;;5.03;47.33;100370.41;5069007;28;20036;-81
2023/02/25 07:31:12;;;;;;;6.35;1.92;;;;;;;5.08;46.92;100386.31;5070554;28;20133;-81
2023/02/25 07:33:41;;;;;;;5.80;2.35;;;;;;;5.05;47.29;100381.97;5054316;28;20119;-81
2023/02/25 07:36:09;;;;;;;6.18;1.65;;;;;;;5.07;47.22;100377.31;5051972;28;20431;-81
2023/02/25 07:38:38;;;;;;;7.65;1.67;;;;;;;5.08;47.42;100370.06;5059614;28;20591;-81
2023/02/25 07:41:08;;;;;;;6.93;1.50;;;;;;;5.10;47.12;100379.81;5054495;28;20041;-81
2023/02/25 07:43:36;;;;;;;5.32;1.40;;;;;;;5.10;47.35;100378.97;5055805;28;20135;-81
2023/02/25 07:46:04;;;;;;;5.47;1.52;;;;;;;5.11;47.38;100376.13;5056125;28;20036;-81
2023/02/25 07:48:34;;;;;;;8.00;1.90;;;;;;;5.13;47.27;100386.88;5074817;28;20079;-81
2023/02/25 07:51:05;;;;;;;5.18;1.45;;;;;;;5.15;47.20;100382.19;5072241;28;20040;-81
2023/02/25 07:53:36;;;;;;;4.53;1.30;;;;;;;5.13;47.29;100392.31;5055227;28;20051;-81
2023/02/25 07:56:06;;;;;;;7.75;1.63;;;;;;;5.16;46.96;100382.09;5081842;28;20032;-81
2023/02/25 07:58:37;;;;;;;7.05;2.38;;;;;;;5.17;47.15;100394.72;5050212;28;20036;-81
2023/02/25 08:01:07;;;;;;;5.68;2.10;;;;;;;5.18;47.20;100403.72;5055658;28;20507;-81
2023/02/25 08:03:37;;;;;;;7.13;1.73;;;;;;;5.19;47.09;100403.59;5064622;28;20044;-81
2023/02/25 08:06:07;;;;;;;7.10;1.42;;;;;;;5.19;47.60;100403.59;5058540;28;20478;-81
2023/02/25 08:08:36;;;;;;;7.60;2.22;;;;;;;5.19;47.37;100403.59;5057316;28;20055;-81
2023/02/25 08:11:08;;;;;;;4.80;1.50;;;;;;;5.23;47.24;100401.53;5058206;28;20036;-81
2023/02/25 08:13:37;;;;;;;6.60;1.77;;;;;;;5.21;47.33;100411.66;5089649;28;20462;-81
2023/02/25 08:16:06;;;;;;;5.53;1.70;;;;;;;5.22;47.41;100408.78;5075876;28;20428;-81
2023/02/25 08:18:35;;;;;;;7.70;1.77;;;;;;;5.23;47.02;100405.09;5057772;28;20054;-81
2023/02/25 08:21:04;;;;;;;7.75;2.00;;;;;;;5.24;47.20;100412.28;5095144;22;20012;-77
2023/02/25 08:23:32;;;;;;;7.30;2.20;;;;;;;5.24;47.44;100400.53;5100186;28;20085;-76
2023/02/25 08:26:01;;;;;;;6.90;1.80;;;;;;;5.25;47.07;100405.00;5081043;28;20518;-77
2023/02/25 08:28:30;;;;;;;4.28;1.38;;;;;;;5.24;47.28;100414.13;5078046;28;20139;-77
2023/02/25 08:31:03;;;;;;;6.30;1.60;;;;;;;5.25;47.20;100421.28;5101670;28;20052;-77
2023/02/25 08:33:31;;;;;;;5.55;1.52;;;;;;;5.25;47.20;100421.28;5105260;28;20055;-76
2023/02/25 08:36:08;;;;;;;6.68;1.50;;;;;;;5.26;47.06;100423.00;5075117;28;20047;-76
2023/02/25 08:38:37;;;;;;;4.82;1.50;;;;;;;5.23;47.24;100424.09;5099017;28;20067;-77
2023/02/25 08:41:06;;;;;;;11.38;3.05;;;;;;;5.23;47.46;100426.81;5090441;28;20468;-77
2023/02/25 08:43:36;;;;;;;5.70;1.77;;;;;;;5.24;47.04;100433.97;5076707;28;20080;-76
2023/02/25 08:46:05;;;;;;;5.65;1.67;;;;;;;5.23;47.30;100432.22;5088165;28;20090;-77
2023/02/25 08:48:33;;;;;;;6.25;1.30;;;;;;;5.23;47.22;100437.66;5074783;28;20040;-77
2023/02/25 08:51:07;;;;;;;4.72;1.42;;;;;;;5.24;47.52;100439.41;5096859;28;20113;-77
2023/02/25 08:53:37;;;;;;;7.53;2.10;;;;;;;5.22;47.26;100441.34;5100874;28;20399;-77
2023/02/25 08:56:06;;;;;;;5.60;1.70;;;;;;;5.19;47.45;100447.00;5080883;28;20189;-77
2023/02/25 08:58:34;;;;;;;6.35;1.73;;;;;;;5.19;47.41;100443.44;5074225;28;20044;-78
2023/02/25 09:01:07;;;;;;;7.63;1.92;;;;;;;5.18;47.55;100442.56;5095461;28;20044;-77
2023/02/25 09:03:35;;;;;;;;;;;;;;;4.94;48.36;100444.28;5096235;28;20089;-77
2023/02/25 09:06:03;;;;;;;6.60;1.80;;;;;;;5.11;47.79;100438.53;5099443;28;19919;-77
2023/02/25 09:08:31;;;;;;;7.43;2.25;;;;;;;5.15;47.79;100437.31;5084139;28;20147;-76
2023/02/25 09:11:00;;;;;;;5.85;1.88;;;;;;;5.18;48.06;100430.84;5078928;28;20050;-76
2023/02/25 09:13:28;;;;;;;6.10;2.08;;;;;;;5.18;48.16;100436.25;5103111;28;20052;-78
2023/02/25 09:15:57;;;;;;;6.07;2.40;;;;;;;5.22;48.13;100440.47;5079279;28;20044;-78
2023/02/25 09:18:25;;;;;;;4.63;1.67;;;;;;;5.23;48.33;100445.81;5079578;28;20047;-77
2023/02/25 09:20:53;;;;;;;7.78;1.80;;;;;;;5.26;48.58;100444.72;5080495;28;20047;-78
2023/02/25 09:23:21;;;;;;;6.32;1.90;;;;;;;5.30;48.74;100457.06;5078298;28;20035;-78
2023/02/25 09:25:49;;;;;;;7.30;1.77;;;;;;;5.34;48.71;100455.88;5094829;28;20120;-78
2023/02/25 09:28:18;;;;;;;5.57;1.50;;;;;;;5.40;48.48;100460.88;5097946;28;20040;-78
2023/02/25 09:30:46;;;;;;;5.50;1.70;;;;;;;5.43;48.46;100451.63;5078507;28;20430;-77
2023/02/25 09:33:14;;;;;;;5.13;1.67;;;;;;;5.47;48.68;100454.00;5077772;28;20048;-78
2023/02/25 09:35:42;;;;;;;9.73;2.28;;;;;;;5.50;48.36;100461.06;5078629;28;20507;-78
2023/02/25 09:38:11;;;;;;;6.40;2.00;;;;;;;5.54;48.31;100457.16;5081229;28;20052;-79
2023/02/25 09:40:40;;;;;;;5.97;1.65;;;;;;;5.58;48.59;100469.53;5086448;28;20085;-79
2023/02/25 09:43:25;;;;;;;6.55;1.77;;;;;;;5.63;48.36;100464.59;5097027;28;20047;-79
2023/02/25 09:45:54;;;;;;;7.05;2.22;;;;;;;5.63;48.43;100462.75;5094865;28;20048;-79
2023/02/25 09:48:29;;;;;;;6.38;2.10;;;;;;;5.69;48.42;100466.91;5104000;28;20064;-79
2023/02/25 09:51:04;;;;;;;6.50;1.88;;;;;;;5.73;48.42;100471.09;5070730;28;20036;-79
2023/02/25 09:53:36;;;;;;;5.32;2.08;;;;;;;5.73;48.25;100484.69;5074713;28;20044;-78
2023/02/25 09:56:06;;;;;;;6.18;1.65;;;;;;;5.76;48.33;100489.03;5105331;28;20084;-79
2023/02/25 09:58:41;;;;;;;4.68;1.60;;;;;;;5.80;48.47;100490.53;5071949;28;20108;-79
2023/02/25 10:01:16;;;;;;;5.80;1.90;;;;;;;5.82;48.55;100494.88;5102057;28;20044;-79
2023/02/25 10:03:52;;;;;;;5.43;2.42;;;;;;;5.86;48.40;100498.25;5098969;28;20043;-79
2023/02/25 10:06:27;;;;;;;8.85;3.28;;;;;;;5.88;48.42;100491.69;5097241;28;20048;-78
2023/02/25 10:09:04;;;;;;;7.43;2.80;;;;;;;5.93;48.37;100496.81;5095592;28;20039;-78
2023/02/25 10:11:41;;;;;;;7.38;2.60;;;;;;;5.95;48.24;100500.28;5102195;27;20059;-78
2023/02/25 10:14:24;;;;;;;6.45;2.38;;;;;;;5.98;47.71;100514.47;5098907;28;20044;-78
2023/02/25 10:16:57;;;;;;;4.30;2.10;;;;;;;5.99;47.80;100508.06;5102681;28;20486;-79
2023/02/25 10:19:42;;;;;;;5.40;2.20;;;;;;;6.04;47.55;100518.59;5088322;28;20290;-79
2023/02/25 10:22:26;;;;;;;3.97;1.70;;;;;;;6.05;47.48;100521.19;5094904;28;20043;-79
2023/02/25 10:24:59;;;;;;;3.45;1.98;;;;;;;6.05;47.44;100526.63;5094914;28;20040;-78
2023/02/25 10:27:31;;;;;;;5.05;1.90;;;;;;;6.05;47.39;100542.94;5086026;28;20056;-78
2023/02/25 10:30:06;;;;;;;4.25;1.60;;;;;;;6.06;47.27;100560.09;5081099;28;20434;-79
2023/02/25 10:32:36;;;;;;;6.70;2.03;;;;;;;6.02;47.09;100573.06;5098088;28;20044;-77
2023/02/25 10:35:16;;;;;;;3.40;1.30;;;;;;;5.97;46.35;100579.78;5106542;28;20115;-76
2023/02/25 10:37:44;;;;;;;2.42;1.17;;;;;;;5.90;46.48;100587.50;5090528;28;20035;-77
2023/02/25 10:40:16;;;;;;;1.27;0.77;;;;;;;5.85;46.46;100591.56;5099639;28;20048;-78
2023/02/25 10:42:47;;;;;;;1.40;0.73;;;;;;;5.75;46.38;100607.63;5104321;28;20071;-77
2023/02/25 10:45:22;;;;;;;1.25;0.68;;;;;;;5.66;46.44;100616.44;5108004;28;20052;-78
2023/02/25 10:47:55;;;;;;;2.47;0.93;;;;;;;5.54;46.39;100606.47;5098806;28;20048;-77
2023/02/25 10:50:26;;;;;;;2.28;0.68;;;;;;;5.44;46.42;100605.38;5079568;28;20490;-78
2023/02/25 10:53:15;;;;;;;2.10;0.70;;;;;;;5.34;46.81;100601.56;5105942;28;20117;-77
2023/02/25 10:55:51;;;;;;;0.77;0.40;;;;;;;5.25;47.34;100598.50;5107251;28;20040;-77
2023/02/25 10:58:26;;;;;;;1.83;0.60;;;;;;;5.18;47.42;100604.47;5082767;28;20050;-77
2023/02/25 11:01:03;;;;;;;1.70;0.82;;;;;;;5.13;47.83;100598.47;5104163;28;20056;-77
2023/02/25 11:03:33;;;;;;;1.38;0.77;;;;;;;5.09;47.93;100602.34;5083401;28;20052;-77
2023/02/25 11:06:10;;;;;;;1.88;0.82;;;;;;;5.06;48.25;100594.41;5084493;28;20056;-77
2023/02/25 11:08:40;;;;;;;1.92;0.55;;;;;;;5.02;48.08;100603.75;5082229;28;20047;-77
2023/02/25 11:11:16;;;;;;;2.30;0.90;;;;;;;5.03;48.39;100597.34;5083589;28;20321;-77
2023/02/25 11:13:55;;;;;;;3.55;1.30;;;;;;;5.01;48.33;100597.44;5096200;28;20364;-77
2023/02/25 11:16:24;;;;;;;2.67;0.93;;;;;;;5.03;48.38;100590.09;5100791;28;20043;-77
2023/02/25 11:18:55;;;;;;;1.77;0.90;;;;;;;5.05;48.97;100584.53;5080418;28;20123;-77
2023/02/25 11:21:32;;;;;;;1.73;0.90;;;;;;;5.10;49.99;100585.97;5096240;28;20203;-77
2023/02/25 11:24:02;;;;;;;2.70;0.88;;;;;;;5.13;49.64;100582.19;5095507;28;20056;-77
2023/02/25 11:26:33;;;;;;;2.20;1.13;;;;;;;5.19;49.97;100589.94;5097266;28;20040;-77
2023/02/25 11:29:05;;;;;;;1.50;1.05;;;;;;;5.25;50.07;100584.94;5103488;28;20054;-77
2023/02/25 11:31:39;;;;;;;3.23;1.17;;;;;;;5.32;50.67;100579.06;5079883;28;20227;-77
2023/02/25 11:34:15;;;;;;;2.30;0.88;;;;;;;5.42;50.69;100586.47;5095109;28;20193;-77
2023/02/25 11:36:43;;;;;;;2.75;1.08;;;;;;;5.48;50.55;100586.03;5084931;28;20495;-77
2023/02/25 11:39:16;;;;;;;4.60;1.20;;;;;;;5.61;50.72;100580.63;5088777;28;20039;-76
2023/02/25 11:41:45;;;;;;;2.70;1.17;;;;;;;5.69;50.56;100561.94;5076387;28;20048;-76
2023/02/25 11:44:27;;;;;;;2.13;1.00;;;;;;;5.81;50.84;100582.75;5098977;28;20028;-76
2023/02/25 11:47:04;;;;;;;2.25;1.08;;;;;;;5.91;50.47;100574.81;5097321;28;20054;-76
2023/02/25 11:50:01;;;;;;;3.08;1.00;;;;;;;6.00;49.88;100576.84;5103612;28;20036;-76
2023/02/25 11:52:38;;;;;;;3.80;1.48;;;;;;;6.10;49.91;100575.22;5102013;28;20547;-77